• Join FlightAware (Why Join?)
  • Login
  • US Flag 
01:52PM EDT


 

Airport Tracker/Info


-or-


 

Live Flight TrackerFlight Track Log ✈ CPZ5718 ✈ 22-Jun-2013 ✈ KALB - KMSP

Flight Track Log - Related Links

Times and Time Zones

All times are in EDT time to prevent confusion due to time zone crossing. See the CPZ5718 flight status page for this flight to view local times or setup timezone preferences in your user account.

Time Position Orientation Groundspeed Altitude Reporting Facility
EDT Latitude Longitude Course Direction KTS MPH feet Rate Location/Type
06:51AM 42.7256 -73.8053 291° West 147 169 1,300  Level Boston Center
06:51AM 42.6964 -73.8214 202° Southwest 189 217 1,800 1,440 Climbing Boston Center
06:52AM 42.7161 -73.9039 288° West 258 297 3,800 2,100 Climbing Boston Center
06:54AM 42.9042 -74.3335 289° West  Level FlightAware Approximate
06:54AM 42.7481 -74.0036 294° West 268 308 6,600  Level Boston Center
06:55AM 42.9394 -74.4741 289° West  Level FlightAware Approximate
06:55AM 42.7906 -74.1008 301° West 273 314 9,900  Level Boston Center
06:56AM 42.9777 -74.6132 291° West  Level FlightAware Approximate
06:56AM 42.8389 -74.2042 303° West 284 327 11,500  Level Boston Center
06:57AM 42.8811 -74.3017 301° West 317 365 13,600 2,100 Climbing Boston Center
06:58AM 42.9333 -74.4194 301° West 334 384 15,800 1,980 Climbing Boston Center
06:59AM 42.9775 -74.5175 302° West 339 390 17,600 1,560 Climbing Boston Center
07:00AM 43.0236 -74.6211 301° West 346 398 19,000 1,500 Climbing Boston Center
07:01AM 43.0794 -74.7456 302° West 346 398 20,600 1,500 Climbing Boston Center
07:02AM 43.1311 -74.8614 301° West 346 398 22,100 1,500 Climbing Boston Center
07:03AM 43.1847 -74.9831 301° West 357 411 23,600 1,260 Climbing Boston Center
07:04AM 43.2364 -75.1019 301° West 364 419 24,700 900 Climbing Boston Center
07:05AM 43.2894 -75.2300 300° West 376 433 25,500 900 Climbing Boston Center
07:06AM 43.3486 -75.3639 301° West 388 447 26,600 960 Climbing Boston Center
07:07AM 43.4058 -75.4925 302° West 401 461 27,500 780 Climbing Boston Center
07:08AM 43.4569 -75.6094 301° West 401 461 28,200 840 Climbing Boston Center
07:09AM 43.5253 -75.7650 301° West 401 461 29,200 840 Climbing Boston Center
07:10AM 43.5819 -75.8969 301° West 401 461 29,900 720 Climbing Boston Center
07:11AM 43.6383 -76.0322 300° West 406 467 30,700 900 Climbing Boston Center
07:12AM 43.6944 -76.1650 300° West 406 467 31,700 960 Climbing Boston Center
07:13AM 43.7442 -76.3003 297° West 406 467 32,700 840 Climbing Boston Center
07:14AM 43.7811 -76.4350 291° West 390 449 33,400 540 Climbing Boston Center
07:15AM 43.8200 -76.5728 291° West 384 442 33,800 240 Climbing Boston Center
07:16AM 43.8500 -76.7000 288° West 390 449 34,000 60 Climbing Toronto Center
07:17AM 43.8833 -76.8500 287° West 400 460 34,000  Level Toronto Center
07:18AM 43.9167 -77.0000 287° West 410 472 34,000  Level Toronto Center
07:19AM 43.9500 -77.1333 289° West 410 472 34,000  Level Toronto Center
07:20AM 44.0000 -77.2833 295° West 410 472 34,000  Level Toronto Center
07:21AM 44.0500 -77.4333 295° West 410 472 34,000  Level Toronto Center
07:22AM 44.0833 -77.5833 287° West 410 472 34,000  Level Toronto Center
07:23AM 44.1167 -77.7333 287° West 410 472 34,000  Level Toronto Center
07:24AM 44.1500 -77.8833 287° West 410 472 34,000  Level Toronto Center
07:25AM 44.2000 -78.0500 293° West 410 472 34,000  Level Toronto Center
07:26AM 44.2333 -78.1833 289° West 410 472 34,000  Level Toronto Center
07:27AM 44.2667 -78.3500 286° West 410 472 34,000  Level Toronto Center
07:28AM 44.3167 -78.4833 298° West 420 483 34,000  Level Toronto Center
07:29AM 44.3500 -78.6500 286° West 410 472 34,000  Level Toronto Center
07:30AM 44.4000 -78.8000 295° West 410 472 34,000  Level Toronto Center
07:31AM 44.4333 -78.9333 289° West 420 483 34,000  Level Toronto Center
07:32AM 44.4667 -79.1000 286° West 410 472 34,000  Level Toronto Center
07:33AM 44.5000 -79.2667 286° West 420 483 34,000  Level Toronto Center
07:34AM 44.5333 -79.4167 287° West 420 483 34,000  Level Toronto Center
07:35AM 44.5833 -79.5667 295° West 420 483 34,000  Level Toronto Center
07:36AM 44.6167 -79.7333 286° West 420 483 34,000  Level Toronto Center
07:37AM 44.6500 -79.8667 289° West 410 472 34,000  Level Toronto Center
07:38AM 44.6833 -80.0333 286° West 420 483 34,000  Level Toronto Center
07:39AM 44.7167 -80.1667 289° West 420 483 34,000  Level Toronto Center
07:40AM 44.7667 -80.3333 293° West 420 483 34,000  Level Toronto Center
07:41AM 44.8000 -80.5000 286° West 420 483 34,000  Level Toronto Center
07:42AM 44.8333 -80.6500 287° West 420 483 34,000  Level Toronto Center
07:43AM 44.8667 -80.8167 286° West 420 483 34,000  Level Toronto Center
07:44AM 44.9000 -80.9667 287° West 430 495 34,000  Level Toronto Center
07:45AM 44.9333 -81.1333 286° West 430 495 34,000  Level Toronto Center
07:46AM 44.9667 -81.3000 286° West 430 495 34,000  Level Toronto Center
07:47AM 45.0000 -81.4667 286° West 430 495 34,000  Level Toronto Center
07:48AM 45.0500 -81.6167 295° West 430 495 34,000  Level Toronto Center
07:49AM 45.0833 -81.7833 286° West 430 495 34,000  Level Toronto Center
07:50AM 45.1167 -81.9500 286° West 420 483 34,000  Level Toronto Center
07:51AM 45.1333 -82.0833 280° West 420 483 34,000  Level Toronto Center
07:52AM 45.1667 -82.2500 286° West 420 483 34,000  Level Toronto Center
07:53AM 45.2167 -82.4333 291° West 420 483 34,000  Level Toronto Center
07:54AM 45.2500 -82.5667 290° West 420 483 34,000  Level Toronto Center
07:55AM 45.2667 -82.7333 278° West 420 483 34,000  Level Toronto Center
07:56AM 45.3000 -82.8833 288° West 420 483 34,000  Level Toronto Center
07:57AM 45.3500 -83.0500 293° West 410 472 34,000  Level Toronto Center
07:58AM 45.3833 -83.2000 288° West 410 472 34,000  Level Toronto Center
07:59AM 45.4000 -83.3667 278° West 410 472 34,000  Level Toronto Center
08:00AM 45.4333 -83.5333 286° West 410 472 34,000  Level Toronto Center
08:01AM 45.4758 -83.6678 294° West 417 480 34,000  Level Minneapolis Center
08:02AM 45.5072 -83.8269 286° West 419 482 34,000  Level Minneapolis Center
08:03AM 45.5389 -83.9881 286° West 420 483 34,000  Level Minneapolis Center
08:04AM 45.5697 -84.1483 285° West 422 486 34,000  Level Minneapolis Center
08:05AM 45.6011 -84.3100 286° West 424 488 34,000  Level Minneapolis Center
08:06AM 45.6314 -84.4717 285° West 425 489 34,000  Level Minneapolis Center
08:07AM 45.6617 -84.6306 285° West 421 484 34,000  Level Minneapolis Center
08:08AM 45.6922 -84.7897 285° West 419 482 34,000  Level Minneapolis Center
08:09AM 45.7206 -84.9464 285° West 413 475 34,000  Level Minneapolis Center
08:10AM 45.7556 -85.1378 285° West 415 478 34,000  Level Minneapolis Center
08:11AM 45.7836 -85.2942 284° West 413 475 34,000  Level Minneapolis Center
08:12AM 45.8128 -85.4533 285° West 416 479 34,000  Level Minneapolis Center
08:13AM 45.8406 -85.6097 284° West 410 472 34,000  Level Minneapolis Center
08:14AM 45.8692 -85.7700 284° West 416 479 34,000  Level Minneapolis Center
08:15AM 45.8961 -85.9269 284° West 411 473 34,000  Level Minneapolis Center
08:16AM 45.9239 -86.0850 284° West 412 474 34,000  Level Minneapolis Center
08:17AM 45.9514 -86.2439 284° West 411 473 34,000  Level Minneapolis Center
08:18AM 45.9778 -86.4019 284° West 411 473 34,000  Level Minneapolis Center
08:19AM 45.9997 -86.5633 281° West 413 475 34,000  Level Minneapolis Center
08:20AM 46.0147 -86.7561 276° West 409 471 34,000  Level Minneapolis Center
08:21AM 46.0272 -86.9178 276° West 409 471 34,000  Level Minneapolis Center
08:22AM 46.0403 -87.0806 277° West 410 472 34,000  Level Minneapolis Center
08:23AM 46.0544 -87.2769 276° West 413 475 34,000  Level Minneapolis Center
08:24AM 46.0658 -87.4408 276° West 414 476 34,000  Level Minneapolis Center
08:25AM 46.0778 -87.6033 276° West 411 473 34,000  Level Minneapolis Center
08:26AM 46.0897 -87.7675 276° West 412 474 34,000  Level Minneapolis Center
08:27AM 46.1008 -87.9319 276° West 416 479 34,000  Level Minneapolis Center
08:28AM 46.1128 -88.0983 276° West 418 481 34,000  Level Minneapolis Center
08:29AM 46.1244 -88.2881 275° West 418 481 34,000  Level Minneapolis Center
08:30AM 46.1247 -88.4553 270° West 417 480 34,000  Level Minneapolis Center
08:31AM 46.1158 -88.6208 266° West 416 479 34,000  Level Minneapolis Center
08:32AM 46.1078 -88.7856 266° West 414 476 34,000  Level Minneapolis Center
08:33AM 46.0986 -88.9597 266° West 416 479 34,000  Level Minneapolis Center
08:35AM 46.0894 -89.1289 266° West 423 487 34,000  Level Minneapolis Center
08:36AM 46.0803 -89.2956 266° West 420 483 34,000  Level Minneapolis Center
08:37AM 46.0714 -89.4606 266° West 417 480 34,000 -180 Level Minneapolis Center
08:38AM 46.0622 -89.6269 266° West 418 481 33,700 -600 Descending Minneapolis Center
08:39AM 46.0514 -89.8089 265° West 423 487 32,900 -840 Descending Minneapolis Center
08:40AM 46.0411 -89.9783 265° West 426 490 32,100 -480 Descending Minneapolis Center
08:41AM 46.0311 -90.1461 265° West 421 484 32,000 -60 Descending Minneapolis Center
08:42AM 46.0203 -90.3156 265° West 426 490 32,000  Level Minneapolis Center
08:43AM 46.0067 -90.5192 265° West 426 490 32,000  Level Minneapolis Center
08:44AM 45.9972 -90.6897 266° West 428 493 32,000  Level Minneapolis Center
08:45AM 45.9856 -90.8597 264° West 428 493 32,000  Level Minneapolis Center
08:46AM 45.9725 -91.0292 264° West 428 493 32,000  Level Minneapolis Center
08:47AM 45.9597 -91.1994 264° West 429 494 32,000  Level Minneapolis Center
08:48AM 45.9489 -91.3708 265° West 429 494 32,000  Level Minneapolis Center
08:49AM 45.9364 -91.5414 264° West 430 495 32,000  Level Minneapolis Center
08:50AM 45.9528 -91.7319 277° West 436 502 32,000  Level Minneapolis Center
08:51AM 45.9844 -91.9025 285° West 442 509 32,000  Level Minneapolis Center
08:52AM 46.0139 -92.0703 284° West 439 505 32,000  Level Minneapolis Center
08:53AM 46.0458 -92.2397 285° West 441 507 32,000  Level Minneapolis Center
08:54AM 46.0742 -92.4044 284° West 430 495 32,000 -180 Level Minneapolis Center
08:55AM 46.1008 -92.5533 285° West 393 452 31,700 -660 Descending Minneapolis Center
08:56AM 46.1261 -92.7003 284° West 383 441 30,700 -1,200 Descending Minneapolis Center
08:57AM 46.1553 -92.8711 284° West 371 427 29,300 -1,320 Descending Minneapolis Center
08:58AM 46.1794 -93.0106 284° West 366 421 28,100 -1,200 Descending Minneapolis Center
08:59AM 46.2025 -93.1475 284° West 359 413 26,900 -1,260 Descending Minneapolis Center
09:00AM 46.2247 -93.2814 284° West 354 407 25,600 -1,320 Descending Minneapolis Center
09:01AM 46.2467 -93.4164 283° West 351 404 24,300 -1,320 Descending Minneapolis Center
09:02AM 46.2697 -93.5481 284° West 347 399 22,900 -1,320 Descending Minneapolis Center
09:03AM 46.2886 -93.6853 281° West 346 398 21,700 -1,380 Descending Minneapolis Center
09:04AM 46.2208 -93.7667 220° Southwest 338 389 20,100 -1,860 Descending Minneapolis Center
09:05AM 46.1083 -93.7492 174° South 339 390 18,000 -1,980 Descending Minneapolis Center
09:06AM 46.0136 -93.7344 174° South 344 396 16,100 -1,920 Descending Minneapolis Center
09:07AM 45.9158 -93.7247 176° South 348 400 14,200 -1,680 Descending Minneapolis Center
09:08AM 45.8222 -93.7114 174° South 342 394 12,700 -1,440 Descending Minneapolis Center
09:09AM 45.7281 -93.6908 171° South 345 397 11,300 -840 Descending Minneapolis Center
09:10AM 45.6389 -93.6383 158° South 344 396 11,100 -120 Descending Minneapolis Center
09:11AM 45.5539 -93.5922 159° South 329 379 11,100  Level Minneapolis Center
09:12AM 45.4683 -93.5469 160° South 328 377 11,100 -60 Level Minneapolis Center
09:13AM 45.4022 -93.5100 159° South 322 371 11,000 -840 Descending Minneapolis Center
09:14AM 45.2961 -93.4539 160° South 290 334 9,400 -1,380 Descending Minneapolis Center
09:15AM 45.2306 -93.4583 183° South 260 299 8,200 -1,020 Descending Minneapolis Center
09:16AM 45.2111 -93.5425 252° West 227 261 7,400 -1,200 Descending Minneapolis Center
09:17AM 45.1858 -93.6231 246° West 228 262 5,800 -1,500 Descending Minneapolis Center
09:18AM 45.1406 -93.6800 222° Southwest 219 252 4,400 -840 Descending Minneapolis Center
09:19AM 45.0944 -93.6675 169° South 173 199 4,100 -180 Descending Minneapolis Center
09:20AM 45.0644 -93.6183 131° Southeast 169 194 4,100  Level Minneapolis Center
09:22AM 45.0375 -93.5564 122° Southeast 150 173 4,100 -60 Level Minneapolis Center
09:23AM 45.0156 -93.5053 121° Southeast 153 176 4,000 -60 Descending Minneapolis Center
09:24AM 44.9931 -93.4522 121° Southeast 157 181 4,000 -240 Level Minneapolis Center
09:25AM 44.9658 -93.3894 121° Southeast 157 181 3,500 -540 Descending Minneapolis Center